Time;durP1;ratioP1;P1;durP2;ratioP2;P2;SDS_P1;SDS_P2;PMS_P1;PMS_P2;Temp;Humidity;BMP_temperature;BMP_pressure;BME280_temperature;BME280_humidity;BME280_pressure;Samples;Min_cycle;Max_cycle;Signal;HPM_P1;HPM_P2
2023/05/21 00:00:36;;;;;;;;;;;11.30;99.90;;;;;;8202523;28;19942;-79
2023/05/21 00:04:39;;;;;;;;;;;11.30;99.90;;;;;;8200704;28;19914;-80
2023/05/21 00:08:40;;;;;;;;;;;11.30;99.90;;;;;;8202498;28;19911;-80
2023/05/21 00:12:41;;;;;;;;;;;10.90;99.90;;;;;;8201809;29;19965;-80
2023/05/21 00:16:43;;;;;;;;;;;10.90;99.90;;;;;;8202511;28;20261;-81
2023/05/21 00:20:44;;;;;;;;;;;10.90;99.90;;;;;;8201918;28;19910;-80
2023/05/21 00:24:45;;;;;;;;;;;10.90;99.90;;;;;;8200708;28;19922;-80
2023/05/21 00:28:45;;;;;;;;;;;10.90;99.90;;;;;;8201375;28;19938;-80
2023/05/21 00:32:46;;;;;;;;;;;10.60;99.90;;;;;;8206047;28;19914;-79
2023/05/21 00:36:46;;;;;;;;;;;10.40;99.90;;;;;;8202590;28;19914;-79
2023/05/21 00:40:47;;;;;;;;;;;10.50;99.90;;;;;;8207226;28;19914;-80
2023/05/21 00:44:47;;;;;;;;;;;10.40;99.90;;;;;;8198661;28;19977;-79
2023/05/21 00:48:48;;;;;;;;;;;10.80;99.90;;;;;;8197803;28;20752;-80
2023/05/21 00:52:49;;;;;;;;;;;10.20;99.90;;;;;;8197468;28;19962;-80
2023/05/21 00:56:50;;;;;;;;;;;10.20;99.90;;;;;;8199351;28;19911;-78
2023/05/21 01:00:54;;;;;;;;;;;9.90;99.90;;;;;;8204612;28;19915;-80
2023/05/21 01:04:55;;;;;;;;;;;10.10;99.90;;;;;;8199020;28;19914;-79
2023/05/21 01:08:56;;;;;;;;;;;10.00;99.90;;;;;;8199420;28;19917;-79
2023/05/21 01:12:57;;;;;;;;;;;10.40;99.90;;;;;;8204716;28;19914;-80
2023/05/21 01:16:58;;;;;;;;;;;10.20;99.90;;;;;;8198943;28;19911;-79
2023/05/21 01:20:59;;;;;;;;;;;10.20;99.90;;;;;;8198252;28;19952;-79
2023/05/21 01:25:01;;;;;;;;;;;10.10;99.90;;;;;;8235732;28;19952;-80
2023/05/21 01:29:02;;;;;;;;;;;10.10;99.90;;;;;;8203458;28;19922;-79
2023/05/21 01:33:03;;;;;;;;;;;9.90;99.90;;;;;;8200261;28;20009;-80
2023/05/21 01:37:11;;;;;;;;;;;10.10;99.90;;;;;;8207957;28;19921;-79
2023/05/21 01:41:12;;;;;;;;;;;10.40;99.90;;;;;;8206297;28;20001;-79
2023/05/21 01:45:14;;;;;;;;;;;10.10;99.90;;;;;;8195544;28;20362;-79
2023/05/21 01:49:16;;;;;;;;;;;9.90;99.90;;;;;;8197568;28;19911;-79
2023/05/21 01:53:16;;;;;;;;;;;9.90;99.90;;;;;;8201028;28;20515;-79
2023/05/21 01:57:17;;;;;;;;;;;9.90;99.90;;;;;;8197995;28;19910;-79
2023/05/21 02:01:19;;;;;;;;;;;9.60;99.90;;;;;;8200675;28;20399;-79
2023/05/21 02:05:19;;;;;;;;;;;10.10;99.90;;;;;;8200254;28;19922;-79
2023/05/21 02:09:20;;;;;;;;;;;9.50;99.90;;;;;;8199084;28;20005;-80
2023/05/21 02:13:21;;;;;;;;;;;9.40;99.90;;;;;;8196056;28;19961;-79
2023/05/21 02:17:23;;;;;;;;;;;9.50;99.90;;;;;;8197515;28;19911;-80
2023/05/21 02:21:23;;;;;;;;;;;9.60;99.90;;;;;;8199330;28;19973;-80
2023/05/21 02:25:24;;;;;;;;;;;9.60;99.90;;;;;;8197016;28;19989;-79
2023/05/21 02:29:24;;;;;;;;;;;9.50;99.90;;;;;;8197899;28;19910;-79
2023/05/21 02:33:25;;;;;;;;;;;9.50;99.90;;;;;;8198773;28;19915;-79
2023/05/21 02:37:28;;;;;;;;;;;9.50;99.90;;;;;;8195819;29;19911;-79
2023/05/21 02:41:28;;;;;;;;;;;9.70;99.90;;;;;;8198417;28;19974;-79
2023/05/21 02:45:29;;;;;;;;;;;9.50;99.90;;;;;;8195421;29;19950;-78
2023/05/21 02:49:29;;;;;;;;;;;9.60;99.90;;;;;;8194825;28;20351;-79
2023/05/21 02:53:30;;;;;;;;;;;9.40;99.90;;;;;;8197273;28;19914;-79
2023/05/21 02:57:30;;;;;;;;;;;9.20;99.90;;;;;;8195968;28;19914;-80
2023/05/21 03:01:31;;;;;;;;;;;9.00;99.90;;;;;;8194798;29;19918;-79
2023/05/21 03:05:31;;;;;;;;;;;9.00;99.90;;;;;;8196499;28;19914;-79
2023/05/21 03:09:32;;;;;;;;;;;9.00;99.90;;;;;;8196575;28;19962;-79
2023/05/21 03:13:32;;;;;;;;;;;9.20;99.90;;;;;;8197062;28;19914;-79
2023/05/21 03:17:32;;;;;;;;;;;9.00;99.90;;;;;;8196081;28;20303;-79
2023/05/21 03:21:33;;;;;;;;;;;9.00;99.90;;;;;;8194065;28;19953;-79
2023/05/21 03:25:35;;;;;;;;;;;8.80;99.90;;;;;;8194740;28;19918;-78
2023/05/21 03:29:36;;;;;;;;;;;8.80;99.90;;;;;;8194327;28;19910;-78
2023/05/21 03:33:36;;;;;;;;;;;9.00;99.90;;;;;;8196131;28;19969;-78
2023/05/21 03:37:37;;;;;;;;;;;8.90;99.90;;;;;;8195349;28;19938;-79
2023/05/21 03:41:37;;;;;;;;;;;8.90;99.90;;;;;;8195429;28;19986;-80
2023/05/21 03:45:38;;;;;;;;;;;8.90;99.90;;;;;;8195463;28;19917;-79
2023/05/21 03:49:38;;;;;;;;;;;8.80;99.90;;;;;;8195241;28;20415;-79
2023/05/21 03:53:39;;;;;;;;;;;8.90;99.90;;;;;;8194036;28;19918;-79
2023/05/21 03:57:39;;;;;;;;;;;8.90;99.90;;;;;;8193763;29;19910;-79
2023/05/21 04:01:41;;;;;;;;;;;8.80;99.90;;;;;;8192760;28;19970;-79
2023/05/21 04:05:42;;;;;;;;;;;8.80;99.90;;;;;;8194039;28;19915;-79
2023/05/21 04:09:42;;;;;;;;;;;9.00;99.90;;;;;;8194188;28;20025;-78
2023/05/21 04:13:43;;;;;;;;;;;9.00;99.90;;;;;;8194063;28;19921;-79
2023/05/21 04:17:44;;;;;;;;;;;9.00;99.90;;;;;;8194997;28;20303;-79
2023/05/21 04:21:44;;;;;;;;;;;9.00;99.90;;;;;;8192826;28;20303;-79
2023/05/21 04:25:49;;;;;;;;;;;9.10;99.90;;;;;;8193140;28;19918;-79
2023/05/21 04:29:49;;;;;;;;;;;9.20;99.90;;;;;;8193395;29;19937;-78
2023/05/21 04:33:50;;;;;;;;;;;9.30;99.90;;;;;;8191383;28;19921;-78
2023/05/21 04:37:53;;;;;;;;;;;9.40;99.90;;;;;;8192523;28;19914;-79
2023/05/21 04:41:55;;;;;;;;;;;9.70;99.90;;;;;;8196004;28;19918;-80
2023/05/21 04:45:55;;;;;;;;;;;9.80;99.90;;;;;;8198352;29;19918;-79
2023/05/21 04:49:56;;;;;;;;;;;10.20;99.90;;;;;;8198068;28;20120;-78
2023/05/21 04:53:57;;;;;;;;;;;10.50;99.90;;;;;;8197369;28;19915;-79
2023/05/21 04:57:57;;;;;;;;;;;11.50;99.90;;;;;;8198916;28;19910;-78
2023/05/21 05:01:57;;;;;;;;;;;11.00;99.90;;;;;;8200683;28;19966;-80
2023/05/21 05:05:58;;;;;;;;;;;12.10;99.90;;;;;;8201135;28;19984;-80
2023/05/21 05:09:58;;;;;;;;;;;13.20;99.90;;;;;;8204138;28;19914;-80
2023/05/21 05:13:59;;;;;;;;;;;13.20;99.90;;;;;;8203981;28;19933;-79
2023/05/21 05:17:59;;;;;;;;;;;13.80;99.90;;;;;;8207012;28;20605;-80
2023/05/21 05:22:00;;;;;;;;;;;14.00;99.90;;;;;;8199250;28;20372;-79
2023/05/21 05:26:00;;;;;;;;;;;14.10;99.90;;;;;;8207764;28;20402;-79
2023/05/21 05:30:01;;;;;;;;;;;14.00;99.90;;;;;;8207947;28;20368;-79
2023/05/21 05:34:01;;;;;;;;;;;14.60;99.90;;;;;;8205306;28;19929;-79
2023/05/21 05:38:02;;;;;;;;;;;14.10;99.90;;;;;;8201154;28;20430;-79
2023/05/21 05:42:02;;;;;;;;;;;14.30;99.90;;;;;;8203424;28;19918;-80
2023/05/21 05:46:03;;;;;;;;;;;14.60;99.90;;;;;;8231952;28;20368;-80
2023/05/21 05:50:03;;;;;;;;;;;15.00;99.90;;;;;;8208115;28;20458;-79
2023/05/21 05:54:04;;;;;;;;;;;15.10;99.90;;;;;;8206594;28;20406;-79
2023/05/21 05:58:05;;;;;;;;;;;15.60;99.90;;;;;;8211130;28;19969;-79
2023/05/21 06:02:05;;;;;;;;;;;15.10;99.90;;;;;;8203243;28;19925;-80
2023/05/21 06:06:06;;;;;;;;;;;15.20;99.90;;;;;;8208332;28;19915;-80
2023/05/21 06:10:06;;;;;;;;;;;16.00;99.90;;;;;;8218481;28;20600;-80
2023/05/21 06:14:07;;;;;;;;;;;15.10;99.90;;;;;;8211865;28;19918;-80
2023/05/21 06:18:07;;;;;;;;;;;15.50;99.90;;;;;;8197758;28;19974;-80
2023/05/21 06:22:08;;;;;;;;;;;15.70;99.90;;;;;;8201820;28;19918;-81
2023/05/21 06:26:08;;;;;;;;;;;15.90;99.90;;;;;;8199598;28;19918;-80
2023/05/21 06:30:09;;;;;;;;;;;16.50;99.90;;;;;;8199183;28;19915;-81
2023/05/21 06:34:10;;;;;;;;;;;16.50;99.90;;;;;;8200935;28;19930;-82
2023/05/21 06:38:11;;;;;;;;;;;16.40;99.90;;;;;;8201556;28;19922;-81
2023/05/21 06:42:11;;;;;;;;;;;17.20;99.90;;;;;;8197224;28;19925;-82
2023/05/21 06:46:12;;;;;;;;;;;17.00;99.90;;;;;;8194867;28;20303;-81
2023/05/21 06:50:12;;;;;;;;;;;17.10;99.90;;;;;;8198695;28;19965;-82
2023/05/21 06:54:12;;;;;;;;;;;17.60;99.90;;;;;;8196891;28;19911;-84
2023/05/21 06:58:13;;;;;;;;;;;18.00;99.90;;;;;;8197823;28;19926;-85
2023/05/21 07:02:13;;;;;;;;;;;18.30;99.90;;;;;;8192000;28;19954;-85
2023/05/21 07:06:15;;;;;;;;;;;19.00;99.90;;;;;;8192429;28;20391;-82
2023/05/21 07:10:16;;;;;;;;;;;19.30;99.90;;;;;;8238092;28;20349;-82
2023/05/21 07:14:16;;;;;;;;;;;19.80;99.90;;;;;;8208614;28;19918;-82
2023/05/21 07:18:17;;;;;;;;;;;20.40;99.90;;;;;;8195209;28;20025;-82
2023/05/21 07:22:18;;;;;;;;;;;20.60;99.90;;;;;;8204432;28;19926;-82
2023/05/21 07:26:20;;;;;;;;;;;20.60;99.90;;;;;;8189963;28;22340;-86
2023/05/21 07:30:20;;;;;;;;;;;20.10;99.90;;;;;;8184595;28;20301;-85
2023/05/21 07:34:21;;;;;;;;;;;20.50;99.90;;;;;;8226966;28;19922;-85
2023/05/21 07:38:21;;;;;;;;;;;20.50;99.90;;;;;;8190008;28;19914;-85
2023/05/21 07:42:22;;;;;;;;;;;20.30;99.90;;;;;;8207316;28;19919;-84
2023/05/21 07:46:22;;;;;;;;;;;20.20;99.90;;;;;;8189067;28;19925;-81
2023/05/21 07:50:23;;;;;;;;;;;20.30;99.90;;;;;;8187113;28;20005;-81
2023/05/21 07:54:23;;;;;;;;;;;21.00;99.90;;;;;;8189758;28;19921;-83
2023/05/21 07:58:24;;;;;;;;;;;20.70;99.90;;;;;;8193961;28;19921;-83
2023/05/21 08:02:24;;;;;;;;;;;20.60;99.90;;;;;;8180943;28;19926;-83
2023/05/21 08:06:25;;;;;;;;;;;20.60;99.90;;;;;;8189036;28;19915;-84
2023/05/21 08:10:26;;;;;;;;;;;21.40;99.90;;;;;;8190980;28;19965;-83
2023/05/21 08:14:26;;;;;;;;;;;21.20;99.90;;;;;;8194008;28;19919;-83
2023/05/21 08:18:27;;;;;;;;;;;21.70;99.90;;;;;;8213934;28;19915;-82
2023/05/21 08:22:27;;;;;;;;;;;22.30;99.90;;;;;;8191429;28;19941;-83
2023/05/21 08:26:28;;;;;;;;;;;22.10;99.90;;;;;;8193008;28;20331;-83
2023/05/21 08:30:28;;;;;;;;;;;22.70;99.90;;;;;;8197295;28;19925;-83
2023/05/21 08:34:29;;;;;;;;;;;22.30;99.90;;;;;;8229284;28;19929;-82
2023/05/21 08:38:30;;;;;;;;;;;22.90;99.90;;;;;;8189502;28;19919;-83
2023/05/21 08:42:49;;;;;;;;;;;22.20;99.90;;;;;;8190060;28;19923;-82
2023/05/21 08:46:50;;;;;;;;;;;21.30;99.90;;;;;;8195355;28;19922;-81
2023/05/21 08:50:52;;;;;;;;;;;21.20;99.90;;;;;;8198153;28;19910;-82
2023/05/21 08:54:53;;;;;;;;;;;21.00;99.90;;;;;;8196342;28;20295;-82
2023/05/21 08:58:54;;;;;;;;;;;20.90;99.90;;;;;;8199119;28;19917;-81
2023/05/21 09:02:55;;;;;;;;;;;21.50;99.90;;;;;;8196726;28;20356;-82
2023/05/21 09:06:56;;;;;;;;;;;21.30;99.90;;;;;;8197217;28;19915;-82
2023/05/21 09:10:57;;;;;;;;;;;21.70;99.90;;;;;;8199902;28;20383;-80
2023/05/21 09:14:59;;;;;;;;;;;21.20;99.90;;;;;;8191065;28;19922;-80
2023/05/21 09:18:59;;;;;;;;;;;21.50;99.90;;;;;;8199524;28;19915;-80
2023/05/21 09:23:03;;;;;;;;;;;21.90;99.90;;;;;;8201418;28;19922;-81
2023/05/21 09:27:05;;;;;;;;;;;21.60;99.90;;;;;;8199050;28;19993;-80
2023/05/21 09:31:06;;;;;;;;;;;21.60;99.90;;;;;;8211877;28;19934;-81
2023/05/21 09:35:10;;;;;;;;;;;21.80;99.90;;;;;;8199903;28;19914;-82
2023/05/21 09:39:15;;;;;;;;;;;21.70;99.90;;;;;;8198783;28;19970;-82
2023/05/21 09:43:15;;;;;;;;;;;22.10;99.90;;;;;;8180729;28;19923;-82
2023/05/21 09:47:18;;;;;;;;;;;22.00;99.90;;;;;;8186707;28;19942;-82
2023/05/21 09:51:19;;;;;;;;;;;22.30;99.90;;;;;;8221533;28;20375;-82
2023/05/21 09:55:23;;;;;;;;;;;22.60;99.90;;;;;;8182088;28;19922;-82
2023/05/21 09:59:33;;;;;;;;;;;22.60;99.90;;;;;;8185648;28;19921;-82
2023/05/21 10:03:37;;;;;;;;;;;23.00;99.90;;;;;;8192466;28;19927;-82
2023/05/21 10:07:40;;;;;;;;;;;23.40;99.90;;;;;;8193568;28;19914;-82
2023/05/21 10:11:42;;;;;;;;;;;23.80;99.90;;;;;;8195933;28;19922;-81
2023/05/21 10:15:44;;;;;;;;;;;24.40;99.90;;;;;;8203567;28;19929;-81
2023/05/21 10:19:46;;;;;;;;;;;25.10;99.90;;;;;;8201098;28;19954;-82
2023/05/21 10:23:47;;;;;;;;;;;26.20;99.90;;;;;;8198794;28;19919;-81
2023/05/21 10:27:48;;;;;;;;;;;26.90;99.90;;;;;;8197427;28;19914;-82
2023/05/21 10:31:49;;;;;;;;;;;26.90;99.90;;;;;;8194521;28;19925;-82
2023/05/21 10:35:50;;;;;;;;;;;27.30;99.90;;;;;;8203976;28;19926;-83
2023/05/21 10:39:51;;;;;;;;;;;28.60;99.90;;;;;;8198307;28;19912;-84
2023/05/21 10:44:13;;;;;;;;;;;29.80;99.90;;;;;;8201230;28;19919;-85
2023/05/21 10:48:13;;;;;;;;;;;29.90;98.00;;;;;;8202321;28;19922;-83
2023/05/21 10:52:34;;;;;;;;;;;30.20;96.40;;;;;;8197121;28;20001;-83
2023/05/21 10:56:39;;;;;;;;;;;29.60;94.80;;;;;;8197784;28;19922;-82
2023/05/21 11:00:41;;;;;;;;;;;28.00;95.80;;;;;;8200307;28;19969;-83
2023/05/21 11:04:47;;;;;;;;;;;27.20;99.90;;;;;;8199071;28;19970;-82
2023/05/21 11:08:48;;;;;;;;;;;27.20;99.60;;;;;;8204118;28;19919;-82
2023/05/21 11:13:08;;;;;;;;;;;27.70;99.30;;;;;;8198283;28;19957;-83
2023/05/21 11:17:08;;;;;;;;;;;28.10;99.30;;;;;;8198301;28;19921;-81
2023/05/21 11:21:16;;;;;;;;;;;28.00;97.90;;;;;;8200023;28;20133;-83
2023/05/21 11:25:17;;;;;;;;;;;27.10;98.50;;;;;;8198175;28;20336;-81
2023/05/21 11:29:18;;;;;;;;;;;26.60;98.20;;;;;;8200622;28;19914;-82
2023/05/21 11:33:19;;;;;;;;;;;26.60;99.90;;;;;;8197386;28;19915;-82
2023/05/21 11:37:22;;;;;;;;;;;27.40;97.90;;;;;;8199576;28;19918;-81
2023/05/21 11:41:22;;;;;;;;;;;28.50;98.00;;;;;;8196890;28;19922;-81
2023/05/21 11:45:26;;;;;;;;;;;29.20;95.50;;;;;;8196157;28;20053;-81
2023/05/21 11:49:27;;;;;;;;;;;29.30;96.80;;;;;;8200171;28;19914;-80
2023/05/21 11:53:28;;;;;;;;;;;29.00;93.30;;;;;;8200675;28;20766;-83
2023/05/21 11:57:32;;;;;;;;;;;29.60;93.70;;;;;;8202512;29;19911;-83
2023/05/21 12:01:32;;;;;;;;;;;30.60;87.20;;;;;;8202813;28;19911;-82
2023/05/21 12:05:45;;;;;;;;;;;31.50;79.80;;;;;;8202568;28;19911;-82
2023/05/21 12:09:49;;;;;;;;;;;32.00;81.70;;;;;;8203714;28;20379;-82
2023/05/21 12:13:50;;;;;;;;;;;33.10;74.70;;;;;;8202658;28;19926;-83
2023/05/21 12:17:51;;;;;;;;;;;33.40;60.30;;;;;;8201925;28;19919;-82
2023/05/21 12:21:52;;;;;;;;;;;32.40;62.30;;;;;;8201806;28;19970;-82
2023/05/21 12:25:52;;;;;;;;;;;32.40;58.80;;;;;;8202794;28;19954;-81
2023/05/21 12:29:53;;;;;;;;;;;32.20;60.50;;;;;;8201859;28;19925;-82
2023/05/21 12:33:53;;;;;;;;;;;32.10;63.80;;;;;;8198638;28;19922;-81
2023/05/21 12:37:54;;;;;;;;;;;32.60;59.00;;;;;;8196381;28;20287;-83
2023/05/21 12:41:55;;;;;;;;;;;33.40;64.30;;;;;;8199352;28;20399;-81
2023/05/21 12:45:55;;;;;;;;;;;33.10;57.80;;;;;;8203024;28;19911;-85
2023/05/21 12:49:58;;;;;;;;;;;34.50;52.80;;;;;;8201355;28;19910;-84
2023/05/21 12:54:01;;;;;;;;;;;35.40;51.10;;;;;;8200873;28;19933;-84
2023/05/21 12:58:03;;;;;;;;;;;36.20;50.20;;;;;;8200802;28;19910;-84
2023/05/21 13:02:03;;;;;;;;;;;36.00;48.00;;;;;;8192484;28;19919;-84
2023/05/21 13:06:07;;;;;;;;;;;36.30;46.90;;;;;;8200588;28;19915;-82
2023/05/21 13:10:08;;;;;;;;;;;35.70;47.60;;;;;;8203092;28;20008;-82
2023/05/21 13:14:08;;;;;;;;;;;36.60;46.90;;;;;;8200635;28;20763;-82
2023/05/21 13:18:09;;;;;;;;;;;36.90;42.80;;;;;;8209567;28;19918;-83
2023/05/21 13:22:09;;;;;;;;;;;37.20;42.40;;;;;;8216140;28;20677;-81
2023/05/21 13:26:10;;;;;;;;;;;37.20;46.60;;;;;;8213887;28;20410;-81
2023/05/21 13:30:11;;;;;;;;;;;35.50;42.80;;;;;;8208706;28;19925;-82
2023/05/21 13:34:11;;;;;;;;;;;35.00;44.30;;;;;;8198440;28;19948;-83
2023/05/21 13:38:12;;;;;;;;;;;34.90;49.00;;;;;;8201999;28;19922;-81
2023/05/21 13:42:12;;;;;;;;;;;33.80;45.10;;;;;;8206237;28;19965;-80
2023/05/21 13:46:13;;;;;;;;;;;32.90;49.30;;;;;;8197997;28;19910;-82
2023/05/21 13:50:14;;;;;;;;;;;31.70;50.20;;;;;;8197941;28;19911;-80
2023/05/21 13:54:15;;;;;;;;;;;31.20;47.60;;;;;;8199359;28;20427;-82
2023/05/21 13:58:15;;;;;;;;;;;31.40;50.20;;;;;;8199881;28;19973;-82
2023/05/21 14:02:15;;;;;;;;;;;32.40;48.70;;;;;;8195112;28;19918;-81
2023/05/21 14:06:16;;;;;;;;;;;32.70;53.00;;;;;;8197353;28;19969;-83
2023/05/21 14:10:16;;;;;;;;;;;33.10;48.20;;;;;;8197726;29;20016;-81
2023/05/21 14:14:17;;;;;;;;;;;35.30;44.70;;;;;;8197917;28;20012;-83
2023/05/21 14:18:18;;;;;;;;;;;37.70;43.30;;;;;;8198570;28;19914;-81
2023/05/21 14:22:18;;;;;;;;;;;38.70;35.40;;;;;;8197563;28;20020;-82
2023/05/21 14:26:19;;;;;;;;;;;37.10;42.40;;;;;;8198084;28;19941;-82
2023/05/21 14:30:19;;;;;;;;;;;36.20;41.20;;;;;;8196505;28;19914;-81
2023/05/21 14:34:20;;;;;;;;;;;35.90;46.10;;;;;;8196603;28;20020;-83
2023/05/21 14:38:20;;;;;;;;;;;34.50;45.20;;;;;;8196991;28;20204;-82
2023/05/21 14:42:21;;;;;;;;;;;35.70;45.80;;;;;;8200793;28;19922;-81
2023/05/21 14:46:21;;;;;;;;;;;36.00;45.50;;;;;;8197691;28;20009;-82
2023/05/21 14:50:22;;;;;;;;;;;34.40;48.30;;;;;;8197744;28;20806;-82
2023/05/21 14:54:22;;;;;;;;;;;35.60;50.70;;;;;;8196865;28;19988;-82
2023/05/21 14:58:23;;;;;;;;;;;36.00;43.00;;;;;;8197269;28;20094;-82
2023/05/21 15:02:23;;;;;;;;;;;34.20;44.50;;;;;;8196817;28;20397;-82
2023/05/21 15:06:23;;;;;;;;;;;33.10;44.50;;;;;;8198401;28;19926;-81
2023/05/21 15:10:25;;;;;;;;;;;33.60;43.70;;;;;;8206886;28;19941;-81
2023/05/21 15:14:25;;;;;;;;;;;34.10;43.50;;;;;;8240099;23;19953;-82
2023/05/21 15:18:26;;;;;;;;;;;34.50;45.20;;;;;;8231275;28;19914;-82
2023/05/21 15:22:26;;;;;;;;;;;34.00;44.20;;;;;;8237290;28;19953;-84
2023/05/21 15:26:27;;;;;;;;;;;32.80;47.40;;;;;;8241691;28;19921;-84
2023/05/21 15:30:27;;;;;;;;;;;31.90;50.40;;;;;;8241728;28;19918;-83
2023/05/21 15:34:27;;;;;;;;;;;31.00;52.10;;;;;;8231473;28;19926;-83
2023/05/21 15:38:28;;;;;;;;;;;29.80;52.60;;;;;;8224427;28;19949;-84
2023/05/21 15:42:30;;;;;;;;;;;30.00;51.30;;;;;;8231894;28;19914;-83
2023/05/21 15:46:30;;;;;;;;;;;29.20;53.40;;;;;;8225619;28;19930;-82
2023/05/21 15:50:31;;;;;;;;;;;28.00;58.70;;;;;;8227936;28;19914;-83
2023/05/21 15:54:31;;;;;;;;;;;27.40;58.40;;;;;;8240802;28;19921;-83
2023/05/21 15:58:32;;;;;;;;;;;26.90;58.50;;;;;;8249056;28;19941;-82
2023/05/21 16:02:32;;;;;;;;;;;26.70;58.50;;;;;;8265551;28;19914;-83
2023/05/21 16:06:33;;;;;;;;;;;26.40;61.70;;;;;;8241262;28;19921;-84
2023/05/21 16:10:33;;;;;;;;;;;26.40;63.20;;;;;;8232708;28;20015;-84
2023/05/21 16:14:34;;;;;;;;;;;26.50;65.20;;;;;;8229850;28;19926;-82
2023/05/21 16:18:35;;;;;;;;;;;26.70;62.90;;;;;;8233869;28;21520;-83
2023/05/21 16:22:36;;;;;;;;;;;26.70;63.80;;;;;;8237233;28;19980;-83
2023/05/21 16:26:36;;;;;;;;;;;26.60;66.30;;;;;;8221462;28;19918;-83
2023/05/21 16:30:37;;;;;;;;;;;26.70;66.80;;;;;;8241830;28;20013;-83
2023/05/21 16:34:37;;;;;;;;;;;26.50;67.20;;;;;;8234871;28;19935;-83
2023/05/21 16:38:38;;;;;;;;;;;26.30;65.20;;;;;;8241413;28;19918;-82
2023/05/21 16:42:38;;;;;;;;;;;26.30;66.30;;;;;;8236108;28;19922;-83
2023/05/21 16:46:39;;;;;;;;;;;25.70;66.20;;;;;;8233020;28;20391;-83
2023/05/21 16:50:39;;;;;;;;;;;25.60;69.30;;;;;;8235284;28;19914;-83
2023/05/21 16:54:41;;;;;;;;;;;25.80;71.60;;;;;;8237861;28;19918;-83
2023/05/21 16:58:41;;;;;;;;;;;25.60;68.80;;;;;;8243781;28;19914;-83
2023/05/21 17:02:42;;;;;;;;;;;25.30;68.50;;;;;;8233080;28;19946;-83
2023/05/21 17:06:42;;;;;;;;;;;25.00;74.60;;;;;;8231823;28;19925;-82
2023/05/21 17:10:43;;;;;;;;;;;25.00;71.50;;;;;;8238132;28;19915;-82
2023/05/21 17:14:43;;;;;;;;;;;24.70;72.70;;;;;;8243232;28;19925;-83
2023/05/21 17:18:43;;;;;;;;;;;24.60;72.30;;;;;;8237490;28;19929;-83
2023/05/21 17:22:44;;;;;;;;;;;24.30;75.10;;;;;;8239913;28;19917;-82
2023/05/21 17:26:44;;;;;;;;;;;24.00;75.50;;;;;;8241483;28;19913;-84
2023/05/21 17:30:45;;;;;;;;;;;23.80;72.60;;;;;;8240751;28;19914;-83
2023/05/21 17:34:45;;;;;;;;;;;23.70;73.60;;;;;;8234305;28;19914;-83
2023/05/21 17:38:46;;;;;;;;;;;23.30;77.70;;;;;;8243099;28;19915;-84
2023/05/21 17:42:46;;;;;;;;;;;23.30;74.90;;;;;;8232324;28;19914;-83
2023/05/21 17:46:48;;;;;;;;;;;22.90;85.70;;;;;;8232629;28;20149;-83
2023/05/21 17:50:48;;;;;;;;;;;22.40;90.10;;;;;;8241567;28;19925;-84
2023/05/21 17:54:49;;;;;;;;;;;22.20;91.30;;;;;;8236868;28;19918;-84
2023/05/21 17:58:49;;;;;;;;;;;21.60;90.90;;;;;;8232988;28;19911;-84
2023/05/21 18:02:50;;;;;;;;;;;21.20;92.20;;;;;;8228777;28;19924;-84
2023/05/21 18:06:50;;;;;;;;;;;21.10;94.20;;;;;;8237061;28;19921;-84
2023/05/21 18:10:51;;;;;;;;;;;21.10;95.20;;;;;;8236748;28;20535;-84
2023/05/21 18:14:51;;;;;;;;;;;21.00;96.20;;;;;;8242308;28;19995;-84
2023/05/21 18:18:51;;;;;;;;;;;20.50;95.40;;;;;;8239939;28;20346;-84
2023/05/21 18:22:53;;;;;;;;;;;20.60;95.90;;;;;;8236412;28;19914;-84
2023/05/21 18:26:53;;;;;;;;;;;21.00;95.90;;;;;;8246227;28;19913;-84
2023/05/21 18:30:59;;;;;;;;;;;20.70;97.10;;;;;;8239508;28;19937;-84
2023/05/21 18:35:00;;;;;;;;;;;19.80;98.30;;;;;;8235804;28;19989;-84
2023/05/21 18:39:00;;;;;;;;;;;20.20;99.30;;;;;;8243901;28;19914;-84
2023/05/21 18:43:02;;;;;;;;;;;20.20;99.90;;;;;;8227810;28;19925;-84
2023/05/21 18:47:03;;;;;;;;;;;19.70;99.90;;;;;;8232812;28;19918;-84
2023/05/21 18:51:03;;;;;;;;;;;19.30;99.90;;;;;;8247453;28;19922;-85
2023/05/21 18:55:06;;;;;;;;;;;19.20;99.90;;;;;;8226335;28;20386;-84
2023/05/21 18:59:07;;;;;;;;;;;18.30;99.90;;;;;;8238509;28;20021;-84
2023/05/21 19:03:11;;;;;;;;;;;18.80;99.90;;;;;;8236875;28;19917;-84
2023/05/21 19:07:11;;;;;;;;;;;17.80;99.90;;;;;;8252270;28;19914;-84
2023/05/21 19:11:14;;;;;;;;;;;18.30;99.90;;;;;;8235536;28;20017;-85
2023/05/21 19:15:15;;;;;;;;;;;17.80;99.90;;;;;;8241882;28;19918;-83
2023/05/21 19:19:15;;;;;;;;;;;17.40;99.90;;;;;;8221009;28;19928;-84
2023/05/21 19:23:16;;;;;;;;;;;18.10;99.90;;;;;;8216000;28;20372;-82
2023/05/21 19:27:16;;;;;;;;;;;17.70;99.90;;;;;;8228808;28;19918;-82
2023/05/21 19:31:18;;;;;;;;;;;17.50;99.90;;;;;;8227960;28;19914;-82
2023/05/21 19:35:19;;;;;;;;;;;16.40;99.90;;;;;;8216980;28;19932;-82
2023/05/21 19:39:19;;;;;;;;;;;16.70;99.90;;;;;;8220384;28;19973;-82
2023/05/21 19:43:20;;;;;;;;;;;15.90;99.90;;;;;;8222927;28;19918;-82
2023/05/21 19:47:20;;;;;;;;;;;15.60;99.90;;;;;;8224414;28;20394;-82
2023/05/21 19:51:21;;;;;;;;;;;15.40;99.90;;;;;;8236082;28;20012;-82
2023/05/21 19:55:22;;;;;;;;;;;15.50;99.90;;;;;;8231356;28;19918;-83
2023/05/21 19:59:22;;;;;;;;;;;15.80;99.90;;;;;;8233068;28;19933;-83
2023/05/21 20:03:24;;;;;;;;;;;15.50;99.90;;;;;;8239562;28;19914;-82
2023/05/21 20:07:25;;;;;;;;;;;15.90;99.90;;;;;;8240205;28;19994;-84
2023/05/21 20:11:25;;;;;;;;;;;16.00;99.90;;;;;;8229737;28;20355;-83
2023/05/21 20:15:26;;;;;;;;;;;16.30;99.90;;;;;;8242742;28;20605;-84
2023/05/21 20:19:26;;;;;;;;;;;16.20;99.90;;;;;;8234149;28;20000;-83
2023/05/21 20:23:27;;;;;;;;;;;15.20;99.90;;;;;;8236170;28;19914;-83
2023/05/21 20:27:27;;;;;;;;;;;14.60;99.90;;;;;;8267722;28;19944;-83
2023/05/21 20:31:28;;;;;;;;;;;14.20;99.90;;;;;;8245842;28;19918;-83
2023/05/21 20:35:29;;;;;;;;;;;14.00;99.90;;;;;;8229857;28;19922;-83
2023/05/21 20:39:29;;;;;;;;;;;14.30;99.90;;;;;;8236335;28;19914;-83
2023/05/21 20:43:30;;;;;;;;;;;14.00;99.90;;;;;;8236828;28;19917;-83
2023/05/21 20:47:30;;;;;;;;;;;13.70;99.90;;;;;;8230293;28;19910;-83
2023/05/21 20:51:31;;;;;;;;;;;13.60;99.90;;;;;;8240462;28;19918;-83
2023/05/21 20:55:33;;;;;;;;;;;13.70;99.90;;;;;;8239075;28;19949;-82
2023/05/21 20:59:33;;;;;;;;;;;13.30;99.90;;;;;;8237526;28;19914;-83
2023/05/21 21:03:34;;;;;;;;;;;13.30;99.90;;;;;;8230554;28;20290;-82
2023/05/21 21:07:35;;;;;;;;;;;13.20;99.90;;;;;;8236993;28;20268;-82
2023/05/21 21:11:35;;;;;;;;;;;13.00;99.90;;;;;;8236636;28;19917;-82
2023/05/21 21:15:36;;;;;;;;;;;12.90;99.90;;;;;;8222135;28;19938;-83
2023/05/21 21:19:36;;;;;;;;;;;12.90;99.90;;;;;;8236992;28;20000;-83
2023/05/21 21:23:37;;;;;;;;;;;13.10;99.90;;;;;;8228207;28;19914;-83
2023/05/21 21:27:37;;;;;;;;;;;13.10;99.90;;;;;;8235992;28;19915;-84
2023/05/21 21:31:38;;;;;;;;;;;12.40;99.90;;;;;;8233635;28;19961;-83
2023/05/21 21:35:38;;;;;;;;;;;12.50;99.90;;;;;;8234539;28;19993;-83
2023/05/21 21:39:39;;;;;;;;;;;12.70;99.90;;;;;;8232351;28;19934;-83
2023/05/21 21:43:39;;;;;;;;;;;12.20;99.90;;;;;;8239721;28;19969;-83
2023/05/21 21:47:40;;;;;;;;;;;12.20;99.90;;;;;;8241706;28;19909;-83
2023/05/21 21:51:40;;;;;;;;;;;12.20;99.90;;;;;;8247756;28;19914;-83
2023/05/21 21:55:41;;;;;;;;;;;12.00;99.90;;;;;;8259017;28;20409;-83
2023/05/21 21:59:41;;;;;;;;;;;12.20;99.90;;;;;;8249216;28;19999;-83
2023/05/21 22:03:41;;;;;;;;;;;11.90;99.90;;;;;;8237635;28;20271;-83
2023/05/21 22:07:45;;;;;;;;;;;11.80;99.90;;;;;;8239529;28;19922;-83
2023/05/21 22:11:46;;;;;;;;;;;11.90;99.90;;;;;;8236834;28;19914;-83
2023/05/21 22:15:47;;;;;;;;;;;12.40;99.90;;;;;;8242120;28;20498;-83
2023/05/21 22:19:48;;;;;;;;;;;12.00;99.90;;;;;;8243416;28;19921;-83
2023/05/21 22:23:48;;;;;;;;;;;11.90;99.90;;;;;;8239170;28;19922;-83
2023/05/21 22:27:49;;;;;;;;;;;11.80;99.90;;;;;;8234602;28;19921;-83
2023/05/21 22:31:50;;;;;;;;;;;11.70;99.90;;;;;;8237333;28;19935;-83
2023/05/21 22:35:50;;;;;;;;;;;11.70;99.90;;;;;;8232608;28;19917;-83
2023/05/21 22:39:51;;;;;;;;;;;11.60;99.90;;;;;;8232946;28;19921;-83
2023/05/21 22:43:51;;;;;;;;;;;11.60;99.90;;;;;;8232205;28;20000;-83
2023/05/21 22:47:55;;;;;;;;;;;11.60;99.90;;;;;;8230871;28;20401;-83
2023/05/21 22:51:58;;;;;;;;;;;11.60;99.90;;;;;;8229958;28;20232;-83
2023/05/21 22:55:58;;;;;;;;;;;11.50;99.90;;;;;;8232318;28;20391;-83
2023/05/21 22:59:59;;;;;;;;;;;11.30;99.90;;;;;;8230979;28;19910;-83
2023/05/21 23:03:59;;;;;;;;;;;11.40;99.90;;;;;;8229136;28;19957;-83
2023/05/21 23:08:00;;;;;;;;;;;11.30;99.90;;;;;;8231642;28;20004;-83
2023/05/21 23:12:00;;;;;;;;;;;11.20;99.90;;;;;;8231515;28;20406;-83
2023/05/21 23:16:02;;;;;;;;;;;11.00;99.90;;;;;;8232035;28;19910;-83
2023/05/21 23:20:02;;;;;;;;;;;11.20;99.90;;;;;;8225417;28;19922;-82
2023/05/21 23:24:03;;;;;;;;;;;11.40;99.90;;;;;;8231086;28;20009;-83